Time;durP1;ratioP1;P1;durP2;ratioP2;P2;SDS_P1;SDS_P2;PMS_P1;PMS_P2;Temp;Humidity;BMP_temperature;BMP_pressure;BME280_temperature;BME280_humidity;BME280_pressure;Samples;Min_cycle;Max_cycle;Signal;HPM_P1;HPM_P2
2021/01/25 00:02:24;;;;;;;55.22;25.75;;;0.30;99.90;;;;;;5027749;28;20041;-82
2021/01/25 00:04:50;;;;;;;63.13;27.88;;;0.30;99.90;;;;;;5011108;28;20060;-80
2021/01/25 00:07:16;;;;;;;49.00;27.02;;;0.30;99.90;;;;;;5010949;28;20060;-80
2021/01/25 00:09:41;;;;;;;51.80;25.90;;;0.30;99.90;;;;;;5011116;28;20123;-81
2021/01/25 00:12:07;;;;;;;50.67;25.38;;;0.30;99.90;;;;;;4994528;28;20029;-79
2021/01/25 00:14:33;;;;;;;44.47;24.73;;;0.30;99.90;;;;;;4994967;28;20439;-82
2021/01/25 00:17:00;;;;;;;43.15;23.08;;;0.30;99.90;;;;;;5010991;28;20026;-82
2021/01/25 00:19:26;;;;;;;44.03;23.80;;;0.30;99.90;;;;;;5010835;28;20061;-79
2021/01/25 00:21:52;;;;;;;48.67;25.80;;;0.30;99.90;;;;;;5010919;28;20026;-81
2021/01/25 00:24:17;;;;;;;49.58;26.20;;;0.30;99.90;;;;;;5010733;28;20079;-82
2021/01/25 00:26:43;;;;;;;45.85;23.88;;;0.30;99.90;;;;;;5011170;28;20036;-82
2021/01/25 00:29:09;;;;;;;40.10;21.60;;;0.30;99.90;;;;;;5028423;28;20036;-82
2021/01/25 00:31:34;;;;;;;47.20;22.92;;;0.30;99.90;;;;;;5027194;28;20037;-82
2021/01/25 00:34:00;;;;;;;44.13;23.33;;;0.30;99.90;;;;;;5010708;28;20041;-81
2021/01/25 00:36:26;;;;;;;44.85;22.83;;;0.40;99.90;;;;;;5027036;28;20034;-82
2021/01/25 00:38:52;;;;;;;44.97;23.35;;;0.30;99.90;;;;;;4994262;28;20025;-82
2021/01/25 00:41:17;;;;;;;49.47;25.02;;;0.30;99.90;;;;;;5026925;28;20377;-82
2021/01/25 00:43:45;;;;;;;47.97;22.42;;;0.40;99.90;;;;;;5027187;28;20475;-81
2021/01/25 00:46:11;;;;;;;45.60;23.38;;;0.40;99.90;;;;;;5027017;28;20037;-80
2021/01/25 00:48:36;;;;;;;49.58;22.58;;;0.40;99.90;;;;;;5026847;28;20372;-81
2021/01/25 00:51:02;;;;;;;45.03;22.27;;;0.40;99.90;;;;;;5026845;28;20479;-81
2021/01/25 00:53:28;;;;;;;45.75;22.20;;;0.40;99.90;;;;;;5026837;28;20022;-81
2021/01/25 00:55:54;;;;;;;42.00;21.95;;;0.40;99.90;;;;;;5010303;28;20033;-81
2021/01/25 00:58:20;;;;;;;44.10;22.35;;;0.40;99.90;;;;;;5010183;28;20042;-81
2021/01/25 01:00:45;;;;;;;41.88;21.40;;;0.40;99.90;;;;;;5010475;28;20026;-80
2021/01/25 01:03:11;;;;;;;42.03;21.75;;;0.40;99.90;;;;;;5026839;28;20029;-82
2021/01/25 01:05:37;;;;;;;41.60;21.52;;;0.40;99.90;;;;;;5010722;28;20030;-79
2021/01/25 01:08:03;;;;;;;44.17;23.02;;;0.40;99.90;;;;;;5010345;28;20060;-80
2021/01/25 01:10:29;;;;;;;51.08;24.10;;;0.40;99.90;;;;;;5010232;28;20033;-81
2021/01/25 01:12:54;;;;;;;44.95;21.92;;;0.40;99.90;;;;;;4994026;28;20076;-83
2021/01/25 01:15:20;;;;;;;44.15;22.38;;;0.30;99.90;;;;;;5026852;28;20476;-82
2021/01/25 01:17:46;;;;;;;42.72;22.35;;;0.30;99.90;;;;;;5026686;28;20037;-80
2021/01/25 01:20:12;;;;;;;41.88;21.55;;;0.30;99.90;;;;;;5013451;28;20496;-81
2021/01/25 01:22:38;;;;;;;44.90;21.88;;;0.30;99.90;;;;;;5030684;28;20113;-81
2021/01/25 01:25:06;;;;;;;42.50;21.58;;;0.30;99.90;;;;;;5014266;28;20037;-80
2021/01/25 01:27:32;;;;;;;42.50;22.95;;;0.30;99.90;;;;;;5030375;28;20022;-79
2021/01/25 01:29:58;;;;;;;42.42;20.45;;;0.30;99.90;;;;;;5031677;28;20383;-81
2021/01/25 01:32:24;;;;;;;38.67;21.10;;;0.30;99.90;;;;;;5030641;28;20060;-83
2021/01/25 01:34:49;;;;;;;42.20;22.17;;;0.30;99.90;;;;;;5030440;28;20022;-82
2021/01/25 01:37:15;;;;;;;42.05;22.98;;;0.30;99.90;;;;;;5013925;28;20120;-81
2021/01/25 01:39:41;;;;;;;41.55;23.17;;;0.30;99.90;;;;;;5030538;28;20021;-80
2021/01/25 01:42:14;;;;;;;41.45;22.55;;;0.20;99.90;;;;;;5014094;28;20361;-82
2021/01/25 01:44:40;;;;;;;41.78;21.83;;;0.30;99.90;;;;;;5030434;28;20558;-80
2021/01/25 01:47:05;;;;;;;39.55;22.35;;;0.20;99.90;;;;;;4997363;28;20029;-81
2021/01/25 01:49:31;;;;;;;41.58;21.92;;;0.20;99.90;;;;;;4997568;28;20064;-81
2021/01/25 01:51:57;;;;;;;36.85;19.77;;;0.20;99.90;;;;;;5013675;28;20033;-82
2021/01/25 01:54:23;;;;;;;42.35;21.77;;;0.20;99.90;;;;;;5013591;28;20036;-81
2021/01/25 01:56:49;;;;;;;41.58;22.30;;;0.20;99.90;;;;;;5013509;28;20087;-79
2021/01/25 01:59:14;;;;;;;40.40;21.75;;;0.20;99.90;;;;;;5013388;28;20034;-80
2021/01/25 02:01:40;;;;;;;40.10;20.70;;;0.20;99.90;;;;;;5031282;28;20040;-79
2021/01/25 02:04:06;;;;;;;42.45;22.35;;;0.20;99.90;;;;;;5013505;28;20591;-82
2021/01/25 02:06:33;;;;;;;39.90;20.63;;;0.20;99.90;;;;;;5013474;28;20550;-80
2021/01/25 02:09:01;;;;;;;37.38;18.92;;;0.20;99.90;;;;;;5013395;28;20033;-84
2021/01/25 02:11:29;;;;;;;34.30;19.10;;;0.20;99.90;;;;;;5029731;28;20037;-85
2021/01/25 02:13:56;;;;;;;37.60;20.58;;;0.20;99.90;;;;;;5029888;28;20480;-79
2021/01/25 02:16:21;;;;;;;40.55;21.70;;;0.20;99.90;;;;;;5029629;28;20063;-83
2021/01/25 02:18:47;;;;;;;35.42;20.05;;;0.20;99.90;;;;;;5012798;28;20452;-84
2021/01/25 02:21:15;;;;;;;34.33;20.20;;;0.20;99.90;;;;;;5028518;28;20041;-81
2021/01/25 02:23:47;;;;;;;45.10;20.73;;;0.20;99.90;;;;;;5028269;28;20488;-81
2021/01/25 02:26:40;;;;;;;40.80;21.60;;;0.20;99.90;;;;;;5028171;28;20034;-82
2021/01/25 02:29:06;;;;;;;40.22;19.48;;;0.20;99.90;;;;;;5027981;28;20024;-81
2021/01/25 02:31:32;;;;;;;32.30;17.70;;;0.20;99.90;;;;;;5028135;28;20477;-81
2021/01/25 02:33:59;;;;;;;34.20;18.63;;;0.20;99.90;;;;;;5029436;28;20109;-81
2021/01/25 02:36:28;;;;;;;35.05;19.25;;;0.20;99.90;;;;;;5028251;28;20451;-81
2021/01/25 02:38:55;;;;;;;34.30;19.17;;;0.20;99.90;;;;;;5028260;28;20030;-82
2021/01/25 02:41:26;;;;;;;34.22;18.95;;;0.20;99.90;;;;;;5028088;28;20033;-82
2021/01/25 02:43:53;;;;;;;28.35;17.17;;;0.20;99.90;;;;;;5029510;28;20028;-81
2021/01/25 02:46:20;;;;;;;30.70;17.13;;;0.20;99.90;;;;;;5011804;28;20543;-81
2021/01/25 02:48:46;;;;;;;30.70;16.17;;;0.20;99.90;;;;;;5011371;28;20488;-82
2021/01/25 02:51:13;;;;;;;27.92;16.00;;;0.20;99.90;;;;;;5029283;28;20028;-80
2021/01/25 02:53:39;;;;;;;30.95;16.83;;;0.20;99.90;;;;;;5027935;28;20350;-82
2021/01/25 02:56:06;;;;;;;27.73;16.10;;;0.20;99.90;;;;;;4995279;28;20080;-81
2021/01/25 02:58:33;;;;;;;26.52;16.65;;;0.20;99.90;;;;;;5027825;28;20021;-84
2021/01/25 03:00:58;;;;;;;31.08;17.80;;;0.20;99.90;;;;;;5011430;28;20450;-81
2021/01/25 03:03:26;;;;;;;31.65;17.98;;;0.20;99.90;;;;;;4994917;28;20034;-81
2021/01/25 03:05:52;;;;;;;32.60;17.38;;;0.20;99.90;;;;;;5011747;28;20492;-81
2021/01/25 03:08:18;;;;;;;29.90;17.50;;;0.20;99.90;;;;;;5027558;28;20049;-80
2021/01/25 03:10:47;;;;;;;30.80;16.13;;;0.20;99.90;;;;;;5011130;28;20030;-81
2021/01/25 03:13:14;;;;;;;32.38;15.70;;;0.20;99.90;;;;;;5027691;28;20025;-83
2021/01/25 03:15:41;;;;;;;26.10;15.55;;;0.20;99.90;;;;;;5027511;28;20503;-81
2021/01/25 03:18:06;;;;;;;27.02;15.00;;;0.20;99.90;;;;;;5027527;28;20036;-82
2021/01/25 03:20:32;;;;;;;24.52;13.68;;;0.20;99.90;;;;;;4989255;28;650484;-83
2021/01/25 03:22:58;;;;;;;38.45;14.75;;;0.30;99.90;;;;;;5012344;28;20038;-80
2021/01/25 03:25:23;;;;;;;20.77;13.65;;;0.20;99.90;;;;;;4995688;28;20084;-76
2021/01/25 03:27:49;;;;;;;22.83;12.85;;;0.30;99.90;;;;;;5029916;28;20021;-80
2021/01/25 03:30:15;;;;;;;22.95;13.45;;;0.30;99.90;;;;;;5028307;28;20380;-80
2021/01/25 03:32:42;;;;;;;24.90;13.13;;;0.20;99.90;;;;;;5028388;28;20097;-83
2021/01/25 03:35:09;;;;;;;21.77;13.05;;;0.20;99.90;;;;;;5028171;28;20021;-81
2021/01/25 03:37:35;;;;;;;22.70;11.93;;;0.20;99.90;;;;;;5028091;28;20029;-83
2021/01/25 03:40:01;;;;;;;22.20;11.85;;;0.20;99.90;;;;;;5028272;28;20047;-81
2021/01/25 03:42:27;;;;;;;21.98;13.45;;;0.20;99.90;;;;;;5027361;28;20033;-81
2021/01/25 03:44:52;;;;;;;20.45;12.82;;;0.20;99.90;;;;;;5011572;28;20033;-80
2021/01/25 03:47:18;;;;;;;20.20;12.68;;;0.30;99.90;;;;;;5011522;28;20483;-82
2021/01/25 03:49:44;;;;;;;22.77;13.30;;;0.20;99.90;;;;;;5027602;28;20025;-81
2021/01/25 03:52:10;;;;;;;23.10;13.35;;;0.20;99.90;;;;;;5011397;28;20135;-81
2021/01/25 03:54:35;;;;;;;23.38;13.02;;;0.20;99.90;;;;;;5011393;28;20091;-83
2021/01/25 03:57:04;;;;;;;25.15;14.88;;;0.20;99.90;;;;;;4995022;28;20032;-81
2021/01/25 03:59:32;;;;;;;24.48;14.20;;;0.20;99.90;;;;;;5027622;28;20032;-82
2021/01/25 04:01:59;;;;;;;24.47;13.37;;;0.20;99.90;;;;;;5027684;28;20034;-80
2021/01/25 04:04:24;;;;;;;19.88;13.45;;;0.10;99.90;;;;;;5027787;28;20279;-83
2021/01/25 04:06:50;;;;;;;25.00;12.68;;;0.10;99.90;;;;;;5027717;28;20030;-80
2021/01/25 04:09:16;;;;;;;20.17;13.40;;;0.10;99.90;;;;;;5011237;28;20033;-81
2021/01/25 04:11:45;;;;;;;28.45;13.90;;;0.10;99.90;;;;;;5010943;28;20095;-84
2021/01/25 04:14:10;;;;;;;22.98;12.73;;;0.10;99.90;;;;;;5027299;28;20026;-81
2021/01/25 04:16:37;;;;;;;20.70;12.35;;;0.10;99.90;;;;;;5027150;28;20496;-83
2021/01/25 04:19:03;;;;;;;29.80;12.50;;;0.10;99.90;;;;;;5010677;28;20068;-80
2021/01/25 04:21:30;;;;;;;21.20;12.68;;;0.10;99.90;;;;;;4994764;28;20124;-83
2021/01/25 04:23:55;;;;;;;21.30;13.02;;;0.10;99.90;;;;;;5027158;28;20040;-80
2021/01/25 04:26:21;;;;;;;19.75;11.65;;;0.10;99.90;;;;;;5010701;28;20479;-80
2021/01/25 04:28:47;;;;;;;22.67;12.02;;;0.10;99.90;;;;;;5028283;28;20025;-80
2021/01/25 04:31:12;;;;;;;20.83;11.68;;;0.00;99.90;;;;;;5010760;28;20033;-82
2021/01/25 04:33:39;;;;;;;17.67;12.27;;;0.00;99.90;;;;;;5010753;28;20056;-82
2021/01/25 04:36:05;;;;;;;21.60;11.45;;;0.00;99.90;;;;;;5010744;28;20086;-81
2021/01/25 04:38:31;;;;;;;19.65;11.52;;;0.00;99.90;;;;;;5027193;28;20029;-80
2021/01/25 04:40:58;;;;;;;17.67;11.02;;;0.00;99.90;;;;;;5010839;28;20052;-80
2021/01/25 04:43:24;;;;;;;16.60;11.20;;;0.00;99.90;;;;;;5010536;28;20030;-80
2021/01/25 04:45:50;;;;;;;21.58;11.25;;;0.00;99.90;;;;;;5026804;28;20037;-83
2021/01/25 04:48:16;;;;;;;25.02;11.52;;;0.00;99.90;;;;;;5010535;28;20437;-82
2021/01/25 04:50:42;;;;;;;17.83;11.25;;;0.00;99.90;;;;;;4994036;28;20384;-82
2021/01/25 04:53:08;;;;;;;18.88;10.85;;;0.00;99.90;;;;;;5026799;28;20495;-82
2021/01/25 04:55:35;;;;;;;19.27;11.13;;;0.00;99.90;;;;;;5026914;28;20543;-84
2021/01/25 04:58:02;;;;;;;16.65;9.70;;;0.00;99.90;;;;;;5026979;28;20040;-83
2021/01/25 05:00:28;;;;;;;16.05;9.13;;;0.00;99.90;;;;;;4993966;28;20029;-80
2021/01/25 05:02:54;;;;;;;18.05;8.55;;;0.00;99.90;;;;;;5010279;28;20068;-80
2021/01/25 05:05:20;;;;;;;20.17;10.15;;;0.00;99.90;;;;;;5026733;28;20021;-80
2021/01/25 05:07:46;;;;;;;15.85;9.48;;;0.00;99.90;;;;;;4994085;28;20033;-79
2021/01/25 05:10:12;;;;;;;16.70;10.18;;;0.00;99.90;;;;;;5028085;28;20032;-80
2021/01/25 05:12:56;;;;;;;17.05;10.02;;;0.00;99.90;;;;;;5010464;28;20035;-83
2021/01/25 05:15:30;;;;;;;12.18;8.38;;;0.00;99.90;;;;;;5026755;28;20057;-80
2021/01/25 05:18:00;;;;;;;19.98;9.38;;;0.00;99.90;;;;;;5026541;28;20524;-80
2021/01/25 05:20:28;;;;;;;16.80;9.00;;;0.00;99.90;;;;;;5027728;28;20245;-79
2021/01/25 05:22:56;;;;;;;17.25;8.40;;;0.10;99.90;;;;;;5026501;28;20026;-82
2021/01/25 05:25:30;;;;;;;14.05;8.45;;;0.00;99.90;;;;;;5026291;28;20485;-82
2021/01/25 05:28:00;;;;;;;15.00;9.23;;;0.10;99.90;;;;;;5026243;28;20025;-81
2021/01/25 05:30:27;;;;;;;13.05;8.02;;;0.10;99.90;;;;;;5009931;28;20046;-81
2021/01/25 05:32:58;;;;;;;15.32;9.32;;;0.10;99.90;;;;;;5026366;28;20037;-79
2021/01/25 05:35:29;;;;;;;13.90;7.75;;;0.10;99.90;;;;;;5027611;28;20120;-80
2021/01/25 05:37:59;;;;;;;16.40;7.68;;;0.10;99.90;;;;;;5026360;28;20021;-79
2021/01/25 05:40:27;;;;;;;17.55;8.18;;;0.10;99.90;;;;;;5027534;28;20021;-80
2021/01/25 05:42:55;;;;;;;13.02;8.27;;;0.00;99.90;;;;;;5027663;28;20412;-83
2021/01/25 05:45:21;;;;;;;13.65;7.47;;;0.00;99.90;;;;;;5026321;28;20453;-80
2021/01/25 05:47:52;;;;;;;17.98;9.50;;;0.00;99.90;;;;;;5026190;28;20108;-81
2021/01/25 05:50:28;;;;;;;14.07;8.40;;;0.00;99.90;;;;;;5027647;28;20026;-81
2021/01/25 05:52:54;;;;;;;11.77;7.82;;;0.00;99.90;;;;;;5026120;28;20481;-81
2021/01/25 05:55:21;;;;;;;15.32;8.15;;;0.00;99.90;;;;;;5026234;28;20436;-80
2021/01/25 05:57:47;;;;;;;14.60;7.38;;;0.00;99.90;;;;;;5009727;28;20030;-81
2021/01/25 06:00:13;;;;;;;13.38;7.57;;;0.00;99.90;;;;;;5027208;28;20033;-81
2021/01/25 06:02:46;;;;;;;11.95;7.00;;;0.00;99.90;;;;;;5027362;28;20061;-80
2021/01/25 06:05:33;;;;;;;13.60;7.82;;;0.00;99.90;;;;;;5027746;28;20068;-80
2021/01/25 06:08:24;;;;;;;13.05;7.10;;;0.00;99.90;;;;;;5031145;28;20097;-80
2021/01/25 06:11:28;;;;;;;12.52;7.30;;;0.00;99.90;;;;;;5029467;28;20392;-80
2021/01/25 06:14:09;;;;;;;16.48;7.70;;;0.00;99.90;;;;;;5031124;28;20029;-79
2021/01/25 06:16:35;;;;;;;13.15;8.05;;;0.00;99.90;;;;;;5029464;28;20136;-69
2021/01/25 06:19:04;;;;;;;14.27;7.20;;;0.00;99.90;;;;;;5030522;28;20116;-78
2021/01/25 06:21:33;;;;;;;19.83;7.88;;;0.00;99.90;;;;;;5029420;28;20502;-79
2021/01/25 06:24:01;;;;;;;14.07;6.95;;;0.00;99.90;;;;;;5029313;28;20033;-78
2021/01/25 06:26:30;;;;;;;12.02;6.65;;;0.00;99.90;;;;;;5030591;28;20026;-79
2021/01/25 06:29:00;;;;;;;10.50;7.03;;;0.10;99.90;;;;;;5013118;28;20045;-79
2021/01/25 06:31:26;;;;;;;14.05;7.45;;;0.10;99.90;;;;;;5029452;28;20059;-78
2021/01/25 06:33:51;;;;;;;12.00;7.07;;;0.10;99.90;;;;;;5028766;28;20026;-81
2021/01/25 06:36:19;;;;;;;11.52;6.47;;;0.10;99.90;;;;;;5012494;28;20036;-80
2021/01/25 06:38:48;;;;;;;12.98;6.53;;;0.00;99.90;;;;;;5028972;28;20038;-79
2021/01/25 06:41:16;;;;;;;9.95;6.05;;;0.10;99.90;;;;;;5028819;28;20152;-79
2021/01/25 06:43:45;;;;;;;9.95;6.10;;;0.10;99.90;;;;;;5028851;28;20025;-80
2021/01/25 06:46:16;;;;;;;13.03;7.23;;;0.00;99.90;;;;;;5029115;28;20032;-80
2021/01/25 06:48:46;;;;;;;9.05;6.35;;;0.10;99.90;;;;;;5029209;28;20029;-81
2021/01/25 06:51:14;;;;;;;13.35;5.95;;;0.00;99.90;;;;;;5030213;28;20121;-82
2021/01/25 06:53:41;;;;;;;14.15;7.38;;;0.10;99.90;;;;;;5012699;28;20039;-80
2021/01/25 06:56:07;;;;;;;11.13;6.63;;;0.00;99.90;;;;;;5028777;28;20034;-80
2021/01/25 06:58:36;;;;;;;17.45;6.10;;;0.00;99.90;;;;;;5028811;28;20044;-82
2021/01/25 07:01:06;;;;;;;14.48;6.40;;;0.00;99.90;;;;;;5030052;28;20532;-80
2021/01/25 07:03:56;;;;;;;12.35;5.97;;;0.00;99.90;;;;;;5028498;28;20022;-79
2021/01/25 07:06:34;;;;;;;14.07;7.22;;;0.00;99.90;;;;;;5025877;28;20034;-80
2021/01/25 07:09:03;;;;;;;13.43;6.28;;;0.00;99.90;;;;;;5028596;28;20045;-79
2021/01/25 07:11:29;;;;;;;10.77;6.15;;;0.00;99.90;;;;;;5028430;28;20026;-80
2021/01/25 07:13:55;;;;;;;13.27;5.60;;;0.00;99.90;;;;;;5029888;28;20670;-82
2021/01/25 07:16:23;;;;;;;13.02;6.63;;;0.00;99.90;;;;;;4994288;28;20033;-81
2021/01/25 07:18:51;;;;;;;11.88;6.35;;;0.00;99.90;;;;;;5029537;28;20034;-81
2021/01/25 07:21:18;;;;;;;12.55;6.63;;;0.00;99.90;;;;;;5029819;28;20078;-81
2021/01/25 07:23:46;;;;;;;9.38;5.40;;;0.00;99.90;;;;;;5028602;28;20025;-83
2021/01/25 07:26:13;;;;;;;13.27;6.55;;;0.00;99.90;;;;;;5028249;28;20025;-82
2021/01/25 07:28:40;;;;;;;12.20;5.05;;;0.00;99.90;;;;;;5029606;28;20025;-81
2021/01/25 07:31:07;;;;;;;14.07;6.45;;;0.00;99.90;;;;;;5027924;28;20107;-81
2021/01/25 07:33:33;;;;;;;11.75;5.30;;;0.00;99.90;;;;;;5028203;28;20430;-81
2021/01/25 07:35:58;;;;;;;9.25;4.50;;;0.00;99.90;;;;;;5011776;28;20232;-82
2021/01/25 07:38:27;;;;;;;7.00;4.25;;;-0.10;99.90;;;;;;5011388;28;20026;-83
2021/01/25 07:40:57;;;;;;;11.95;5.78;;;0.00;99.90;;;;;;5029381;28;20067;-82
2021/01/25 07:43:25;;;;;;;13.52;4.95;;;0.00;99.90;;;;;;5011984;28;20060;-81
2021/01/25 07:45:51;;;;;;;14.07;5.53;;;0.00;99.90;;;;;;5027915;28;20083;-82
2021/01/25 07:48:18;;;;;;;8.95;4.72;;;0.00;99.90;;;;;;5027774;28;20036;-82
2021/01/25 07:50:54;;;;;;;9.23;5.00;;;0.00;99.90;;;;;;5027875;28;20030;-81
2021/01/25 07:53:20;;;;;;;8.30;4.32;;;0.00;99.90;;;;;;5029382;28;20030;-81
2021/01/25 07:55:46;;;;;;;8.77;4.90;;;0.00;99.90;;;;;;5010976;28;20029;-81
2021/01/25 07:58:13;;;;;;;11.15;5.43;;;0.00;99.90;;;;;;5011303;28;20503;-80
2021/01/25 08:00:42;;;;;;;10.07;5.20;;;0.00;99.90;;;;;;5011232;28;20026;-80
2021/01/25 08:03:14;;;;;;;10.65;4.85;;;0.00;99.90;;;;;;5027524;28;20091;-82
2021/01/25 08:05:40;;;;;;;11.57;4.72;;;0.00;99.90;;;;;;5027099;28;20025;-81
2021/01/25 08:08:11;;;;;;;7.70;4.32;;;0.00;99.90;;;;;;5011176;28;20109;-82
2021/01/25 08:10:38;;;;;;;10.40;4.57;;;0.00;99.90;;;;;;5027128;28;20071;-80
2021/01/25 08:13:16;;;;;;;10.63;5.47;;;0.00;99.90;;;;;;5010912;28;20026;-83
2021/01/25 08:16:01;;;;;;;8.18;4.47;;;0.00;99.90;;;;;;5027383;28;20483;-81
2021/01/25 08:18:51;;;;;;;8.90;4.55;;;0.00;99.90;;;;;;5028200;28;20026;-83
2021/01/25 08:21:26;;;;;;;10.60;3.90;;;0.00;99.90;;;;;;5027261;28;20056;-81
2021/01/25 08:23:55;;;;;;;12.80;4.20;;;0.10;99.90;;;;;;5028371;28;20470;-80
2021/01/25 08:26:29;;;;;;;10.20;3.92;;;0.10;99.90;;;;;;5027058;28;20029;-82
2021/01/25 08:29:12;;;;;;;10.90;3.97;;;0.10;99.90;;;;;;5026535;28;20544;-80
2021/01/25 08:31:41;;;;;;;7.82;3.65;;;0.10;99.90;;;;;;5028142;28;20448;-82
2021/01/25 08:34:31;;;;;;;6.85;4.03;;;0.20;99.90;;;;;;5026816;28;20022;-82
2021/01/25 08:37:02;;;;;;;11.02;7.93;;;0.20;99.90;;;;;;5026841;28;20026;-80
2021/01/25 08:39:54;;;;;;;8.65;4.40;;;0.30;99.90;;;;;;5026653;28;20377;-80
2021/01/25 08:42:31;;;;;;;7.28;3.78;;;0.30;99.90;;;;;;5026732;28;20049;-81
2021/01/25 08:45:13;;;;;;;12.52;5.13;;;0.40;99.90;;;;;;5026921;28;20128;-79
2021/01/25 08:47:39;;;;;;;9.30;4.60;;;0.40;99.90;;;;;;5010186;28;20029;-82
2021/01/25 08:50:25;;;;;;;15.57;5.05;;;0.50;99.90;;;;;;5027861;28;20033;-82
2021/01/25 08:52:59;;;;;;;11.60;5.20;;;0.60;99.90;;;;;;5026747;28;20035;-81
2021/01/25 08:55:29;;;;;;;17.77;6.80;;;0.60;99.90;;;;;;5026740;28;20047;-80
2021/01/25 08:57:55;;;;;;;12.25;5.70;;;0.70;99.90;;;;;;5027846;28;20026;-80
2021/01/25 09:00:27;;;;;;;10.52;4.47;;;0.80;99.90;;;;;;5026514;28;20112;-80
2021/01/25 09:03:00;;;;;;;8.70;3.75;;;0.80;99.90;;;;;;5027821;28;20583;-81
2021/01/25 09:05:26;;;;;;;8.63;3.60;;;0.80;99.90;;;;;;5026436;28;20037;-83
2021/01/25 09:07:53;;;;;;;8.35;3.20;;;0.90;99.90;;;;;;5026109;28;20117;-81
2021/01/25 09:10:19;;;;;;;7.88;4.03;;;0.90;99.90;;;;;;5027919;28;20034;-78
2021/01/25 09:12:45;;;;;;;6.93;3.63;;;0.90;99.90;;;;;;5026426;28;20488;-82
2021/01/25 09:15:12;;;;;;;7.32;4.57;;;1.00;99.90;;;;;;5026313;28;20115;-80
2021/01/25 09:17:38;;;;;;;9.25;5.22;;;1.00;99.90;;;;;;5026524;28;20037;-80
2021/01/25 09:20:06;;;;;;;9.88;4.53;;;1.00;99.90;;;;;;5027438;28;20076;-81
2021/01/25 09:22:32;;;;;;;10.20;3.75;;;1.10;99.90;;;;;;5010263;28;20029;-80
2021/01/25 09:24:58;;;;;;;4.72;2.60;;;1.10;99.90;;;;;;5027652;28;20026;-80
2021/01/25 09:27:24;;;;;;;7.13;3.10;;;1.40;99.90;;;;;;5026383;28;20074;-81
2021/01/25 09:29:50;;;;;;;7.60;5.18;;;2.10;99.90;;;;;;5009710;28;20044;-80
2021/01/25 09:32:16;;;;;;;8.32;3.47;;;3.10;99.90;;;;;;5026261;28;20025;-81
2021/01/25 09:34:42;;;;;;;7.13;2.80;;;4.20;99.90;;;;;;5026307;28;20538;-81
2021/01/25 09:37:09;;;;;;;6.50;3.22;;;5.10;99.90;;;;;;5009986;28;20025;-79
2021/01/25 09:39:36;;;;;;;7.68;3.42;;;6.00;99.90;;;;;;5010742;28;20029;-81
2021/01/25 09:42:04;;;;;;;10.75;2.80;;;6.80;99.90;;;;;;5031230;28;20048;-80
2021/01/25 09:44:29;;;;;;;8.20;2.78;;;7.60;99.90;;;;;;5030221;28;20047;-83
2021/01/25 09:46:56;;;;;;;13.27;2.60;;;8.20;99.90;;;;;;5030572;28;20403;-80
2021/01/25 09:49:23;;;;;;;8.52;3.10;;;8.40;99.90;;;;;;4997732;28;20068;-78
2021/01/25 09:51:49;;;;;;;11.88;3.58;;;8.80;99.90;;;;;;5031360;28;20057;-81
2021/01/25 09:54:14;;;;;;;5.30;2.38;;;9.40;99.90;;;;;;5031408;28;20431;-79
2021/01/25 09:56:41;;;;;;;9.55;3.20;;;9.90;99.40;;;;;;5031193;28;20053;-79
2021/01/25 09:59:06;;;;;;;5.82;2.47;;;10.40;98.80;;;;;;5013223;28;20550;-80
2021/01/25 10:01:32;;;;;;;9.27;2.78;;;10.80;97.60;;;;;;5029907;28;20025;-82
2021/01/25 10:03:58;;;;;;;6.75;2.97;;;11.20;96.80;;;;;;5013328;28;20037;-81
2021/01/25 10:06:27;;;;;;;5.53;2.35;;;11.50;95.30;;;;;;5013400;28;20029;-80
2021/01/25 10:08:56;;;;;;;6.28;2.67;;;11.70;94.70;;;;;;5013680;28;20087;-79
2021/01/25 10:11:23;;;;;;;8.50;2.70;;;11.90;94.40;;;;;;5030782;28;20087;-82
2021/01/25 10:13:49;;;;;;;4.65;2.63;;;12.20;93.80;;;;;;5014023;28;20427;-81
2021/01/25 10:16:15;;;;;;;8.13;3.15;;;12.40;93.10;;;;;;5029893;28;20112;-82
2021/01/25 10:18:40;;;;;;;4.97;2.38;;;12.70;92.50;;;;;;4996450;28;20034;-80
2021/01/25 10:21:06;;;;;;;8.32;2.90;;;12.90;91.80;;;;;;5013385;28;20041;-80
2021/01/25 10:23:32;;;;;;;5.80;3.08;;;13.00;91.20;;;;;;5029718;28;20034;-79
2021/01/25 10:25:59;;;;;;;4.80;2.55;;;13.20;90.90;;;;;;5029363;28;20061;-81
2021/01/25 10:28:25;;;;;;;8.05;3.67;;;13.50;90.50;;;;;;5013062;28;20399;-80
2021/01/25 10:30:51;;;;;;;8.63;3.03;;;13.70;88.80;;;;;;5013261;28;20435;-80
2021/01/25 10:33:16;;;;;;;7.07;2.90;;;13.90;87.90;;;;;;5031232;28;20025;-79
2021/01/25 10:35:42;;;;;;;4.97;2.85;;;14.20;87.10;;;;;;5031007;28;20042;-78
2021/01/25 10:38:08;;;;;;;6.05;3.53;;;14.40;86.40;;;;;;5013073;28;20540;-82
2021/01/25 10:40:34;;;;;;;7.90;3.17;;;14.60;84.50;;;;;;5029354;28;20043;-81
2021/01/25 10:43:00;;;;;;;9.93;3.70;;;14.60;82.50;;;;;;5030348;28;20029;-81
2021/01/25 10:45:26;;;;;;;8.43;4.45;;;14.40;80.60;;;;;;5029792;28;20095;-80
2021/01/25 10:47:51;;;;;;;9.45;3.50;;;14.10;79.80;;;;;;5013276;28;20507;-81
2021/01/25 10:50:17;;;;;;;9.25;4.95;;;13.80;80.00;;;;;;5029665;28;20080;-79
2021/01/25 10:52:44;;;;;;;7.28;4.15;;;13.70;80.20;;;;;;5028566;28;20041;-80
2021/01/25 10:55:11;;;;;;;13.38;5.05;;;13.50;79.60;;;;;;5029734;28;20540;-81
2021/01/25 10:57:37;;;;;;;15.15;6.88;;;13.40;79.00;;;;;;5029113;28;20026;-81
2021/01/25 11:00:09;;;;;;;10.90;3.50;;;13.30;79.10;;;;;;5012274;28;20048;-80
2021/01/25 11:02:35;;;;;;;6.65;2.45;;;13.30;78.60;;;;;;5030180;28;20587;-79
2021/01/25 11:05:06;;;;;;;6.65;2.97;;;13.20;78.30;;;;;;5030284;28;20037;-80
2021/01/25 11:07:33;;;;;;;8.38;3.50;;;12.90;77.80;;;;;;5029270;28;20064;-82
2021/01/25 11:09:59;;;;;;;8.63;4.35;;;12.70;78.10;;;;;;5012171;28;20071;-81
2021/01/25 11:12:24;;;;;;;10.00;4.65;;;12.70;78.20;;;;;;5012993;28;20091;-79
2021/01/25 11:14:50;;;;;;;24.33;10.52;;;12.70;79.00;;;;;;4997546;28;20036;-81
2021/01/25 11:17:16;;;;;;;8.57;3.45;;;12.60;78.80;;;;;;5029524;28;20030;-81
2021/01/25 11:19:41;;;;;;;5.32;2.90;;;12.70;79.20;;;;;;5028754;28;20149;-81
2021/01/25 11:22:07;;;;;;;4.28;2.78;;;12.90;79.50;;;;;;5029385;28;20025;-81
2021/01/25 11:24:33;;;;;;;6.35;2.90;;;13.20;79.10;;;;;;5030598;28;20067;-78
2021/01/25 11:27:02;;;;;;;7.65;4.30;;;13.30;78.30;;;;;;5012322;28;20428;-81
2021/01/25 11:29:30;;;;;;;8.45;4.10;;;13.60;78.00;;;;;;5028175;28;20030;-83
2021/01/25 11:32:00;;;;;;;10.38;4.60;;;13.90;78.10;;;;;;5027748;28;20113;-78
2021/01/25 11:34:26;;;;;;;9.35;4.25;;;14.30;77.20;;;;;;5028385;28;20022;-79
2021/01/25 11:36:52;;;;;;;12.18;3.67;;;14.50;76.00;;;;;;5011656;28;20073;-83
2021/01/25 11:39:18;;;;;;;6.07;2.75;;;14.60;74.70;;;;;;5028022;28;20057;-78
2021/01/25 11:41:44;;;;;;;5.10;2.15;;;14.40;72.30;;;;;;5029039;28;20030;-82
2021/01/25 11:44:09;;;;;;;6.68;2.55;;;14.10;71.30;;;;;;5029013;28;20466;-83
2021/01/25 11:46:36;;;;;;;5.90;2.28;;;13.60;69.90;;;;;;5027463;28;20032;-79
2021/01/25 11:49:02;;;;;;;8.15;3.33;;;12.90;69.20;;;;;;5028732;28;20043;-80
2021/01/25 11:51:28;;;;;;;10.90;3.53;;;12.30;69.20;;;;;;5029101;28;20104;-82
2021/01/25 11:53:53;;;;;;;6.28;2.80;;;11.60;70.00;;;;;;5027339;28;20029;-84
2021/01/25 11:56:19;;;;;;;5.00;2.60;;;11.10;70.80;;;;;;4994403;28;20102;-80
2021/01/25 11:58:45;;;;;;;4.85;2.20;;;10.50;71.40;;;;;;5027232;28;20029;-82
2021/01/25 12:01:10;;;;;;;6.22;2.22;;;10.10;72.30;;;;;;5027626;28;20040;-81
2021/01/25 12:03:36;;;;;;;8.40;2.30;;;9.80;73.90;;;;;;5027920;28;20037;-79
2021/01/25 12:06:02;;;;;;;6.63;2.35;;;9.80;76.70;;;;;;5027572;28;20136;-81
2021/01/25 12:08:27;;;;;;;3.33;1.98;;;10.00;77.60;;;;;;5010915;28;20345;-83
2021/01/25 12:10:53;;;;;;;11.13;5.22;;;10.00;76.90;;;;;;5028345;28;20065;-80
2021/01/25 12:13:19;;;;;;;8.32;3.97;;;10.10;77.20;;;;;;5027057;28;20045;-82
2021/01/25 12:15:45;;;;;;;5.20;2.83;;;10.20;77.00;;;;;;5026989;28;20037;-81
2021/01/25 12:18:10;;;;;;;8.52;2.50;;;10.10;76.60;;;;;;5010587;28;20029;-79
2021/01/25 12:20:36;;;;;;;4.30;2.10;;;10.20;78.20;;;;;;5027205;28;20052;-82
2021/01/25 12:23:02;;;;;;;4.50;2.65;;;10.40;78.00;;;;;;5026601;28;20092;-80
2021/01/25 12:25:28;;;;;;;10.73;5.13;;;10.50;77.10;;;;;;5026880;28;20033;-78
2021/01/25 12:27:54;;;;;;;7.47;3.28;;;10.40;76.80;;;;;;5028365;28;20036;-81
2021/01/25 12:30:20;;;;;;;11.43;3.45;;;10.30;76.90;;;;;;4994799;28;20080;-81
2021/01/25 12:32:46;;;;;;;6.88;2.88;;;10.30;77.40;;;;;;5027325;28;20091;-81
2021/01/25 12:35:13;;;;;;;10.65;3.90;;;10.40;77.90;;;;;;5010969;28;20192;-79
2021/01/25 12:37:39;;;;;;;6.70;1.92;;;10.60;78.40;;;;;;5027776;28;20053;-82
2021/01/25 12:40:06;;;;;;;5.82;2.83;;;10.90;79.50;;;;;;5025979;28;20484;-79
2021/01/25 12:42:32;;;;;;;6.60;3.53;;;11.30;79.30;;;;;;5010389;28;20136;-82
2021/01/25 12:44:58;;;;;;;11.02;4.45;;;11.70;79.30;;;;;;5025985;28;20060;-79
2021/01/25 12:47:24;;;;;;;6.75;3.38;;;12.10;78.30;;;;;;5027514;28;20563;-81